createdAt,value
2023-03-25T00:03:00.700Z,38.90
2023-03-25T00:08:04.004Z,29.50
2023-03-25T00:13:08.411Z,40.42
2023-03-25T00:18:11.121Z,41.13
2023-03-25T00:23:14.383Z,46.13
2023-03-25T00:28:18.554Z,43.38
2023-03-25T00:33:22.588Z,40.53
2023-03-25T00:38:33.515Z,42.38
2023-03-25T00:43:38.336Z,41.53
2023-03-25T00:48:42.139Z,39.63
2023-03-25T00:53:45.119Z,35.97
2023-03-25T00:58:49.338Z,34.22
2023-03-25T01:03:57.700Z,38.10
2023-03-25T01:09:02.001Z,33.53
2023-03-25T01:14:07.402Z,32.50
2023-03-25T01:19:10.974Z,41.28
2023-03-25T01:24:15.312Z,37.45
2023-03-25T01:29:22.274Z,45.27
2023-03-25T01:34:25.474Z,38.40
2023-03-25T01:39:28.974Z,38.83
2023-03-25T01:45:09.892Z,44.15
2023-03-25T01:50:15.362Z,51.13
2023-03-25T01:55:20.216Z,35.35
2023-03-25T02:00:23.431Z,51.80
2023-03-25T02:05:33.804Z,51.85
2023-03-25T02:10:37.459Z,40.78
2023-03-25T02:15:55.353Z,54.23
2023-03-25T02:21:28.162Z,49.60
2023-03-25T02:27:14.940Z,42.78
2023-03-25T02:32:31.507Z,49.58
2023-03-25T02:38:02.160Z,49.00
2023-03-25T02:43:07.250Z,44.05
2023-03-25T02:48:15.759Z,55.45
2023-03-25T02:53:22.769Z,43.63
2023-03-25T02:58:27.676Z,51.17
2023-03-25T03:03:30.924Z,47.80
2023-03-25T03:08:58.462Z,44.40
2023-03-25T03:14:11.378Z,38.10
2023-03-25T03:19:24.107Z,49.05
2023-03-25T03:24:31.937Z,58.28
2023-03-25T03:29:38.119Z,55.50
2023-03-25T03:34:46.500Z,53.95
2023-03-25T03:39:52.122Z,53.38
2023-03-25T03:44:58.220Z,45.53
2023-03-25T03:50:05.339Z,56.83
2023-03-25T03:55:14.025Z,53.83
2023-03-25T04:00:19.779Z,58.58
2023-03-25T04:05:24.422Z,58.05
2023-03-25T04:10:34.766Z,46.80
2023-03-25T04:15:38.665Z,56.83
2023-03-25T04:20:44.698Z,44.77
2023-03-25T04:25:49.968Z,53.90
2023-03-25T04:30:55.652Z,48.90
2023-03-25T04:36:01.989Z,55.83
2023-03-25T04:41:07.812Z,56.50
2023-03-25T04:46:12.516Z,54.63
2023-03-25T04:51:16.477Z,61.60
2023-03-25T04:56:20.879Z,44.42
2023-03-25T05:01:30.953Z,44.53
2023-03-25T05:06:34.623Z,46.33
2023-03-25T05:11:41.749Z,44.77
2023-03-25T05:16:45.418Z,47.90
2023-03-25T05:21:48.653Z,40.30
2023-03-25T05:26:52.789Z,41.38
2023-03-25T05:31:55.818Z,36.90
2023-03-25T05:36:58.766Z,40.13
2023-03-25T05:42:03.295Z,35.97
2023-03-25T05:47:07.433Z,41.13
2023-03-25T05:52:11.792Z,43.58
2023-03-25T05:57:16.075Z,32.27
2023-03-25T06:02:19.673Z,35.00
2023-03-25T06:07:22.877Z,33.58
2023-03-25T06:12:27.632Z,35.97
2023-03-25T06:17:30.652Z,34.05
2023-03-25T06:22:34.087Z,28.27
2023-03-25T06:27:40.422Z,42.13
2023-03-25T06:32:43.605Z,35.20
2023-03-25T06:37:47.210Z,38.35
2023-03-25T06:42:57.834Z,39.38
2023-03-25T06:48:09.922Z,44.70
2023-03-25T06:53:12.902Z,33.65
2023-03-25T06:58:17.463Z,39.63
2023-03-25T07:03:20.475Z,39.92
2023-03-25T07:08:23.973Z,32.85
2023-03-25T07:13:28.332Z,42.10
2023-03-25T07:18:31.488Z,42.57
2023-03-25T07:23:34.512Z,33.88
2023-03-25T07:28:39.257Z,33.13
2023-03-25T07:33:42.657Z,37.45
2023-03-25T07:38:46.287Z,39.60
2023-03-25T07:43:50.823Z,35.20
2023-03-25T07:49:02.385Z,29.38
2023-03-25T07:54:06.033Z,35.08
2023-03-25T07:59:10.986Z,36.67
2023-03-25T08:04:14.731Z,31.17
2023-03-25T08:09:17.933Z,38.23
2023-03-25T08:14:22.347Z,36.03
2023-03-25T08:19:25.728Z,30.27
2023-03-25T08:24:30.107Z,38.38
2023-03-25T08:29:34.752Z,26.77
2023-03-25T08:34:39.862Z,36.40
2023-03-25T08:39:45.218Z,30.05
2023-03-25T08:44:49.715Z,29.98
2023-03-25T08:49:52.796Z,29.85
2023-03-25T08:54:55.965Z,36.53
2023-03-25T09:00:00.499Z,29.80
2023-03-25T09:05:04.632Z,36.63
2023-03-25T09:10:09.455Z,26.63
2023-03-25T09:15:14.204Z,32.67
2023-03-25T09:20:18.784Z,30.30
2023-03-25T09:25:21.977Z,41.42
2023-03-25T09:30:26.458Z,27.47
2023-03-25T09:35:29.508Z,34.97
2023-03-25T09:40:32.977Z,26.48
2023-03-25T09:45:39.101Z,34.63
2023-03-25T09:50:43.228Z,25.80
2023-03-25T09:55:48.213Z,31.57
2023-03-25T10:00:57.798Z,31.02
2023-03-25T10:06:20.307Z,27.45
2023-03-25T10:11:28.439Z,35.13
2023-03-25T10:16:39.924Z,30.60
2023-03-25T10:21:48.209Z,34.95
2023-03-25T10:26:54.853Z,30.23
2023-03-25T10:32:01.706Z,33.92
2023-03-25T10:37:05.720Z,31.70
2023-03-25T10:42:18.311Z,30.25
2023-03-25T10:47:26.364Z,30.90
2023-03-25T10:52:29.337Z,35.78
2023-03-25T10:57:32.400Z,29.10
2023-03-25T11:02:36.693Z,34.93
2023-03-25T11:07:41.739Z,30.30
2023-03-25T11:12:46.240Z,28.75
2023-03-25T11:17:58.019Z,31.77
2023-03-25T11:23:07.163Z,19.25
2023-03-25T11:28:17.299Z,34.17
2023-03-25T11:33:26.159Z,32.42
2023-03-25T11:38:32.404Z,27.38
2023-03-25T11:43:37.228Z,31.75
2023-03-25T11:48:43.002Z,32.38
2023-03-25T11:53:46.891Z,21.83
2023-03-25T11:58:50.331Z,28.00
2023-03-25T12:04:08.165Z,22.10
2023-03-25T12:09:13.055Z,27.65
2023-03-25T12:14:24.885Z,33.93
2023-03-25T12:19:35.637Z,40.15
2023-03-25T12:24:53.011Z,24.45
2023-03-25T12:30:00.706Z,30.33
2023-03-25T12:35:20.685Z,23.30
2023-03-25T12:40:37.441Z,23.40
2023-03-25T12:45:58.818Z,26.48
2023-03-25T12:51:07.206Z,22.23
2023-03-25T12:56:19.286Z,20.02
2023-03-25T13:01:29.379Z,17.80
2023-03-25T13:06:36.733Z,13.47
2023-03-25T13:11:42.261Z,12.82
2023-03-25T13:16:45.846Z,16.50
2023-03-25T13:21:52.689Z,21.75
2023-03-25T13:26:56.744Z,25.60
2023-03-25T13:32:02.568Z,20.55
2023-03-25T13:37:10.087Z,12.60
2023-03-25T13:42:17.796Z,12.30
2023-03-25T13:47:25.721Z,13.63
2023-03-25T13:52:33.872Z,21.98
2023-03-25T13:57:52.990Z,17.43
2023-03-25T14:03:28.432Z,18.48
2023-03-25T14:08:49.173Z,21.50
2023-03-25T14:13:55.408Z,34.90
2023-03-25T14:19:02.423Z,22.57
2023-03-25T14:24:12.134Z,16.33
2023-03-25T14:29:23.842Z,23.30
2023-03-25T14:34:28.093Z,15.67
2023-03-25T14:39:42.791Z,15.57
2023-03-25T14:44:49.441Z,15.50
2023-03-25T14:49:56.125Z,14.00
2023-03-25T14:55:03.051Z,17.30
2023-03-25T15:00:13.868Z,21.20
2023-03-25T15:05:19.605Z,12.07
2023-03-25T15:10:29.463Z,8.37
2023-03-25T15:15:34.721Z,13.43
2023-03-25T15:20:37.766Z,12.05
2023-03-25T15:25:42.883Z,11.20
2023-03-25T15:31:03.833Z,11.03
2023-03-25T15:36:19.069Z,14.10
2023-03-25T15:42:01.844Z,13.27
2023-03-25T15:47:30.579Z,9.77
2023-03-25T15:53:01.180Z,12.05
2023-03-25T15:58:06.001Z,7.95
2023-03-25T16:03:15.195Z,11.53
2023-03-25T16:08:21.623Z,15.82
2023-03-25T16:13:24.703Z,18.95
2023-03-25T16:18:29.477Z,8.75
2023-03-25T16:23:32.451Z,9.50
2023-03-25T16:28:38.283Z,6.43
2023-03-25T16:33:42.538Z,15.50
2023-03-25T16:38:45.554Z,8.83
2023-03-25T16:43:48.471Z,15.63
2023-03-25T16:48:54.297Z,14.95
2023-03-25T16:53:59.710Z,15.00
2023-03-25T16:59:04.597Z,11.35
2023-03-25T17:04:13.310Z,12.43
2023-03-25T17:09:18.654Z,13.68
2023-03-25T17:14:23.316Z,20.50
2023-03-25T17:19:30.572Z,10.87
2023-03-25T17:24:41.772Z,23.02
2023-03-25T17:29:51.044Z,14.57
2023-03-25T17:35:01.020Z,12.52
2023-03-25T17:40:12.577Z,10.23
2023-03-25T17:45:16.424Z,11.38
2023-03-25T17:50:22.904Z,10.07
2023-03-25T17:55:25.853Z,11.53
2023-03-25T18:00:28.748Z,15.70
2023-03-25T18:05:32.956Z,15.53
2023-03-25T18:10:36.538Z,19.15
2023-03-25T18:15:40.602Z,8.32
2023-03-25T18:20:45.984Z,12.35
2023-03-25T18:25:49.158Z,18.90
2023-03-25T18:30:54.051Z,11.93
2023-03-25T18:35:59.978Z,10.88
2023-03-25T18:41:02.942Z,14.00
2023-03-25T18:46:06.194Z,12.13
2023-03-25T18:51:13.046Z,12.83
2023-03-25T18:56:16.062Z,16.33
2023-03-25T19:01:21.651Z,14.70
2023-03-25T19:06:26.460Z,18.95
2023-03-25T19:11:30.661Z,10.82
2023-03-25T19:16:33.604Z,15.13
2023-03-25T19:21:37.813Z,16.63
2023-03-25T19:26:41.394Z,16.60
2023-03-25T19:31:44.258Z,16.70
2023-03-25T19:36:48.397Z,20.60
2023-03-25T19:41:52.788Z,14.97
2023-03-25T19:46:55.973Z,17.85
2023-03-25T19:52:00.136Z,17.03
2023-03-25T19:57:03.051Z,29.27
2023-03-25T20:02:07.074Z,25.08
2023-03-25T20:07:11.327Z,19.52
2023-03-25T20:12:14.116Z,16.57
2023-03-25T20:17:16.919Z,13.00
2023-03-25T20:22:24.941Z,11.70
2023-03-25T20:27:28.156Z,9.77
2023-03-25T20:32:40.444Z,10.20
2023-03-25T20:37:48.691Z,14.27
2023-03-25T20:42:51.743Z,16.17
2023-03-25T20:47:54.629Z,13.07
2023-03-25T20:52:59.383Z,9.07
2023-03-25T20:58:02.210Z,7.40
2023-03-25T21:03:05.214Z,9.75
2023-03-25T21:08:09.480Z,13.07
2023-03-25T21:13:12.695Z,11.43
2023-03-25T21:18:15.746Z,18.98
2023-03-25T21:23:20.601Z,13.03
2023-03-25T21:28:24.249Z,14.93
2023-03-25T21:33:27.206Z,8.23
2023-03-25T21:38:31.972Z,12.00
2023-03-25T21:43:36.326Z,13.37
2023-03-25T21:48:44.892Z,17.67
2023-03-25T21:53:50.259Z,12.27
2023-03-25T21:58:53.324Z,12.57
2023-03-25T22:03:57.292Z,19.98
2023-03-25T22:09:05.397Z,10.65
2023-03-25T22:14:09.730Z,12.50
2023-03-25T22:19:12.969Z,16.00
2023-03-25T22:24:17.178Z,14.23
2023-03-25T22:29:20.064Z,20.90
2023-03-25T22:34:23.209Z,19.58
2023-03-25T22:39:28.298Z,11.02
2023-03-25T22:44:31.183Z,17.57
2023-03-25T22:49:34.019Z,19.65
2023-03-25T22:54:38.222Z,17.50
2023-03-25T22:59:41.125Z,15.88
2023-03-25T23:04:44.197Z,18.30
2023-03-25T23:09:48.418Z,14.30
2023-03-25T23:14:52.738Z,19.63
2023-03-25T23:19:55.865Z,15.63
2023-03-25T23:24:59.974Z,17.25
2023-03-25T23:30:03.093Z,20.80
2023-03-25T23:35:06.631Z,14.23
2023-03-25T23:40:12.525Z,23.07
2023-03-25T23:45:15.644Z,19.37
2023-03-25T23:50:19.397Z,23.13
2023-03-25T23:55:23.629Z,23.75
